createdAt,value
2018-03-11T00:02:18.991Z,7.70
2018-03-11T00:04:46.600Z,7.70
2018-03-11T00:07:14.969Z,7.70
2018-03-11T00:09:42.563Z,7.70
2018-03-11T00:12:10.850Z,7.70
2018-03-11T00:14:38.454Z,7.80
2018-03-11T00:17:06.015Z,7.80
2018-03-11T00:19:33.651Z,7.80
2018-03-11T00:22:01.273Z,7.80
2018-03-11T00:24:28.873Z,7.80
2018-03-11T00:26:56.492Z,7.80
2018-03-11T00:29:24.104Z,7.80
2018-03-11T00:31:51.642Z,7.80
2018-03-11T00:34:19.252Z,7.90
2018-03-11T00:36:46.913Z,7.90
2018-03-11T00:39:14.563Z,7.90
2018-03-11T00:41:42.133Z,7.90
2018-03-11T00:44:10.537Z,7.90
2018-03-11T00:46:38.903Z,8.00
2018-03-11T00:49:07.305Z,8.00
2018-03-11T00:51:34.883Z,7.90
2018-03-11T00:54:02.479Z,8.00
2018-03-11T00:56:30.062Z,8.00
2018-03-11T00:58:58.431Z,7.90
2018-03-11T01:01:26.787Z,7.90
2018-03-11T01:03:54.414Z,7.90
2018-03-11T01:06:22.010Z,8.00
2018-03-11T01:08:49.588Z,7.90
2018-03-11T01:11:17.919Z,7.80
2018-03-11T01:13:45.534Z,7.80
2018-03-11T01:16:13.899Z,7.80
2018-03-11T01:18:42.262Z,7.80
2018-03-11T01:21:09.906Z,7.70
2018-03-11T01:23:37.513Z,7.80
2018-03-11T01:26:05.899Z,7.70
2018-03-11T01:28:33.517Z,7.70
2018-03-11T01:31:01.170Z,7.70
2018-03-11T01:33:28.806Z,7.60
2018-03-11T01:35:56.411Z,7.60
2018-03-11T01:38:23.977Z,7.60
2018-03-11T01:40:52.352Z,7.50
2018-03-11T01:43:19.989Z,7.50
2018-03-11T01:45:47.625Z,7.40
2018-03-11T01:48:15.235Z,7.40
2018-03-11T01:50:42.800Z,7.40
2018-03-11T01:53:10.409Z,7.30
2018-03-11T01:55:38.031Z,7.40
2018-03-11T01:58:06.392Z,7.40
2018-03-11T02:00:33.996Z,7.40
2018-03-11T02:03:01.594Z,7.40
2018-03-11T02:05:29.224Z,7.40
2018-03-11T02:07:56.802Z,7.40
2018-03-11T02:10:24.387Z,7.40
2018-03-11T02:12:51.964Z,7.30
2018-03-11T02:15:19.584Z,7.20
2018-03-11T02:17:47.188Z,7.00
2018-03-11T02:20:15.530Z,6.80
2018-03-11T02:22:43.087Z,6.80
2018-03-11T02:25:10.724Z,6.80
2018-03-11T02:27:38.359Z,6.80
2018-03-11T02:30:06.785Z,6.70
2018-03-11T02:32:34.423Z,6.70
2018-03-11T02:35:02.050Z,6.70
2018-03-11T02:37:30.423Z,6.50
2018-03-11T02:39:58.763Z,6.50
2018-03-11T02:42:26.339Z,6.50
2018-03-11T02:44:53.960Z,6.50
2018-03-11T02:47:21.574Z,6.50
2018-03-11T02:49:49.149Z,6.40
2018-03-11T02:52:17.475Z,6.10
2018-03-11T02:54:45.082Z,6.00
2018-03-11T02:57:13.426Z,5.80
2018-03-11T02:59:41.076Z,5.80
2018-03-11T03:02:08.660Z,5.80
2018-03-11T03:04:36.268Z,5.70
2018-03-11T03:07:03.889Z,5.60
2018-03-11T03:09:31.492Z,5.50
2018-03-11T03:11:59.108Z,5.60
2018-03-11T03:14:26.731Z,5.50
2018-03-11T03:16:54.307Z,5.40
2018-03-11T03:19:21.914Z,5.40
2018-03-11T03:21:50.255Z,5.70
2018-03-11T03:24:17.879Z,5.70
2018-03-11T03:26:45.469Z,5.70
2018-03-11T03:29:13.051Z,5.60
2018-03-11T03:31:41.427Z,5.60
2018-03-11T03:34:09.052Z,5.60
2018-03-11T03:36:36.691Z,5.60
2018-03-11T03:39:04.259Z,5.60
2018-03-11T03:41:31.881Z,5.70
2018-03-11T03:44:00.242Z,5.60
2018-03-11T03:46:27.855Z,5.60
2018-03-11T03:48:55.426Z,5.70
2018-03-11T03:51:22.992Z,5.70
2018-03-11T03:53:50.559Z,5.70
2018-03-11T03:56:18.120Z,5.60
2018-03-11T03:58:45.699Z,5.40
2018-03-11T04:01:13.321Z,5.40
2018-03-11T04:03:40.952Z,5.50
2018-03-11T04:06:08.559Z,5.60
2018-03-11T04:08:36.152Z,5.70
2018-03-11T04:11:03.767Z,5.80
2018-03-11T04:13:31.389Z,5.80
2018-03-11T04:15:59.836Z,5.60
2018-03-11T04:18:27.430Z,5.60
2018-03-11T04:20:55.790Z,5.40
2018-03-11T04:23:24.166Z,5.30
2018-03-11T04:25:51.782Z,5.30
2018-03-11T04:28:19.450Z,5.10
2018-03-11T04:30:47.071Z,5.20
2018-03-11T04:33:15.407Z,5.00
2018-03-11T04:35:43.015Z,4.90
2018-03-11T04:38:10.598Z,4.80
2018-03-11T04:40:38.196Z,4.70
2018-03-11T04:43:05.783Z,4.80
2018-03-11T04:45:34.192Z,4.60
2018-03-11T04:48:01.742Z,4.60
2018-03-11T04:50:29.315Z,4.50
2018-03-11T04:52:56.951Z,4.50
2018-03-11T04:55:24.531Z,4.40
2018-03-11T04:57:52.151Z,4.50
2018-03-11T05:00:20.560Z,4.60
2018-03-11T05:02:48.166Z,4.50
2018-03-11T05:05:15.739Z,4.50
2018-03-11T05:07:43.380Z,4.40
2018-03-11T05:10:11.684Z,4.40
2018-03-11T05:12:39.268Z,4.40
2018-03-11T05:15:06.876Z,4.40
2018-03-11T05:17:34.487Z,4.40
2018-03-11T05:20:02.811Z,4.10
2018-03-11T05:22:30.445Z,4.10
2018-03-11T05:24:57.998Z,4.10
2018-03-11T05:27:25.976Z,4.20
2018-03-11T05:43:27.695Z,4.10
2018-03-11T05:45:55.984Z,4.10
2018-03-11T05:51:25.150Z,4.00
2018-03-11T05:53:52.684Z,4.00
2018-03-11T05:56:20.295Z,3.90
2018-03-11T05:58:48.651Z,3.90
2018-03-11T06:01:22.944Z,3.90
2018-03-11T06:03:50.551Z,3.90
2018-03-11T06:06:20.167Z,4.00
2018-03-11T06:08:48.551Z,4.30
2018-03-11T06:11:17.722Z,4.50
2018-03-11T06:13:45.330Z,4.50
2018-03-11T06:16:12.926Z,4.50
2018-03-11T06:18:49.086Z,4.40
2018-03-11T06:21:16.700Z,4.50
2018-03-11T06:23:44.278Z,4.70
2018-03-11T06:26:11.860Z,4.90
2018-03-11T06:28:39.486Z,5.00
2018-03-11T06:31:07.145Z,5.20
2018-03-11T06:33:34.739Z,5.40
2018-03-11T06:42:01.361Z,5.90
2018-03-11T06:44:29.719Z,6.20
2018-03-11T06:46:58.110Z,6.10
2018-03-11T06:49:25.719Z,6.00
2018-03-11T06:51:53.351Z,5.60
2018-03-11T06:54:20.936Z,5.40
2018-03-11T06:56:48.543Z,5.30
2018-03-11T06:59:16.107Z,5.10
2018-03-11T07:02:02.299Z,5.00
2018-03-11T07:04:29.928Z,5.20
2018-03-11T07:06:57.538Z,5.30
2018-03-11T07:09:25.899Z,5.60
2018-03-11T07:12:14.086Z,5.60
2018-03-11T07:20:39.539Z,6.30
2018-03-11T07:23:07.141Z,6.20
2018-03-11T07:25:41.359Z,6.20
2018-03-11T07:28:08.972Z,6.10
2018-03-11T07:30:36.628Z,6.20
2018-03-11T07:33:04.229Z,6.50
2018-03-11T07:35:31.876Z,6.50
2018-03-11T07:37:59.487Z,6.80
2018-03-11T07:40:27.841Z,7.20
2018-03-11T07:42:55.451Z,7.10
2018-03-11T07:45:23.071Z,7.50
2018-03-11T07:47:52.014Z,8.40
2018-03-11T07:50:19.598Z,8.40
2018-03-11T07:52:47.163Z,8.80
2018-03-11T07:55:14.801Z,10.00
2018-03-11T07:57:42.427Z,11.40
2018-03-11T08:00:10.881Z,12.70
2018-03-11T08:02:38.503Z,12.60
2018-03-11T08:05:06.157Z,13.00
2018-03-11T08:07:33.787Z,13.60
2018-03-11T08:10:01.395Z,13.70
2018-03-11T08:12:28.982Z,13.00
2018-03-11T08:14:56.583Z,11.30
2018-03-11T08:17:24.193Z,11.00
2018-03-11T08:19:51.832Z,10.60
2018-03-11T08:22:20.167Z,9.20
2018-03-11T08:24:50.041Z,8.70
2018-03-11T08:27:17.685Z,8.70
2018-03-11T08:29:45.316Z,8.30
2018-03-11T08:32:12.942Z,8.20
2018-03-11T08:34:40.526Z,8.20
2018-03-11T08:37:08.188Z,8.20
2018-03-11T08:39:35.835Z,8.50
2018-03-11T08:42:04.191Z,8.10
2018-03-11T08:44:31.782Z,8.00
2018-03-11T08:47:00.161Z,8.00
2018-03-11T08:49:34.423Z,8.10
2018-03-11T08:52:02.003Z,8.10
2018-03-11T08:54:29.671Z,8.50
2018-03-11T08:56:57.256Z,8.40
2018-03-11T08:59:25.656Z,8.60
2018-03-11T09:01:53.229Z,8.60
2018-03-11T09:04:20.883Z,8.80
2018-03-11T09:06:48.486Z,8.90
2018-03-11T09:09:16.111Z,9.20
2018-03-11T09:11:45.455Z,9.30
2018-03-11T09:14:13.085Z,9.40
2018-03-11T09:16:40.720Z,10.00
2018-03-11T09:19:08.294Z,10.00
2018-03-11T09:21:36.704Z,11.20
2018-03-11T09:24:04.319Z,11.20
2018-03-11T09:26:31.927Z,12.10
2018-03-11T09:28:59.512Z,12.50
2018-03-11T09:31:49.409Z,12.10
2018-03-11T09:34:17.890Z,12.10
2018-03-11T09:36:45.506Z,12.30
2018-03-11T09:39:13.075Z,12.00
2018-03-11T09:41:40.662Z,12.00
2018-03-11T09:44:09.058Z,12.40
2018-03-11T09:46:36.680Z,12.40
2018-03-11T09:52:00.482Z,12.50
2018-03-11T09:54:28.114Z,12.60
2018-03-11T09:56:55.780Z,13.00
2018-03-11T09:59:23.379Z,13.20
2018-03-11T10:01:51.746Z,13.20
2018-03-11T10:04:20.183Z,13.50
2018-03-11T10:06:47.745Z,13.40
2018-03-11T10:09:15.308Z,13.90
2018-03-11T10:11:42.857Z,14.20
2018-03-11T10:14:10.479Z,14.00
2018-03-11T10:16:38.136Z,13.90
2018-03-11T10:19:05.765Z,13.40
2018-03-11T10:21:33.332Z,13.20
2018-03-11T10:24:00.898Z,13.20
2018-03-11T10:26:28.539Z,13.10
2018-03-11T10:28:56.140Z,12.90
2018-03-11T10:31:23.759Z,12.70
2018-03-11T10:33:51.340Z,12.90
2018-03-11T10:36:18.926Z,13.00
2018-03-11T10:38:49.361Z,13.00
2018-03-11T10:41:16.997Z,13.10
2018-03-11T10:43:45.361Z,13.90
2018-03-11T10:46:12.981Z,13.90
2018-03-11T10:48:40.603Z,14.00
2018-03-11T10:51:08.988Z,14.40
2018-03-11T10:53:37.403Z,14.90
2018-03-11T10:56:05.033Z,14.80
2018-03-11T10:58:33.386Z,15.20
2018-03-11T11:01:06.504Z,15.20
2018-03-11T11:03:34.077Z,15.00
2018-03-11T11:06:02.484Z,14.60
2018-03-11T11:08:30.094Z,14.60
2018-03-11T11:10:58.459Z,14.50
2018-03-11T11:13:26.111Z,14.40
2018-03-11T11:15:53.680Z,14.50
2018-03-11T11:18:22.076Z,15.40
2018-03-11T11:20:50.481Z,15.50
2018-03-11T11:23:18.091Z,15.50
2018-03-11T11:25:46.885Z,16.10
2018-03-11T11:28:14.447Z,16.50
2018-03-11T11:30:42.852Z,17.30
2018-03-11T11:33:10.462Z,17.20
2018-03-11T11:35:38.088Z,17.90
2018-03-11T11:38:05.658Z,18.80
2018-03-11T11:40:33.306Z,19.20
2018-03-11T11:43:02.074Z,19.50
2018-03-11T11:45:29.691Z,20.10
2018-03-11T11:47:57.261Z,21.00
2018-03-11T11:50:24.871Z,22.70
2018-03-11T11:52:56.430Z,22.40
2018-03-11T11:55:24.027Z,22.40
2018-03-11T11:57:51.607Z,21.90
2018-03-11T12:00:19.236Z,22.30
2018-03-11T12:02:46.871Z,22.50
2018-03-11T12:05:14.459Z,22.90
2018-03-11T12:07:42.071Z,22.60
2018-03-11T12:10:09.644Z,21.80
2018-03-11T12:12:37.211Z,21.70
2018-03-11T12:15:04.829Z,21.90
2018-03-11T12:17:33.392Z,22.40
2018-03-11T12:20:01.021Z,22.70
2018-03-11T12:22:28.646Z,22.70
2018-03-11T12:25:00.496Z,22.40
2018-03-11T12:27:28.859Z,21.90
2018-03-11T12:34:32.196Z,20.60
2018-03-11T12:37:00.494Z,20.00
2018-03-11T12:39:28.017Z,19.90
2018-03-11T12:41:55.547Z,19.60
2018-03-11T12:44:33.370Z,19.30
2018-03-11T12:47:01.894Z,19.30
2018-03-11T12:49:29.482Z,19.20
2018-03-11T12:51:57.071Z,19.10
2018-03-11T12:54:24.662Z,18.90
2018-03-11T12:56:52.991Z,18.30
2018-03-11T12:59:20.588Z,18.30
2018-03-11T13:01:48.946Z,18.00
2018-03-11T13:04:17.352Z,17.80
2018-03-11T13:06:45.699Z,17.70
2018-03-11T13:09:13.271Z,17.60
2018-03-11T13:11:40.897Z,17.60
2018-03-11T13:14:08.556Z,17.40
2018-03-11T13:16:38.138Z,17.10
2018-03-11T13:19:05.739Z,16.90
2018-03-11T13:21:33.333Z,16.90
2018-03-11T13:24:01.688Z,17.00
2018-03-11T13:26:31.263Z,17.00
2018-03-11T13:28:58.852Z,17.00
2018-03-11T13:31:26.421Z,16.90
2018-03-11T13:34:20.542Z,17.00
2018-03-11T13:36:48.200Z,16.80
2018-03-11T13:39:27.583Z,16.80
2018-03-11T13:41:55.152Z,16.70
2018-03-11T13:44:22.728Z,16.70
2018-03-11T13:47:11.044Z,16.60
2018-03-11T13:49:38.674Z,16.30
2018-03-11T13:52:18.085Z,16.10
2018-03-11T13:54:46.466Z,15.70
2018-03-11T14:00:26.968Z,15.50
2018-03-11T14:02:54.516Z,15.30
2018-03-11T14:05:22.062Z,15.20
2018-03-11T14:07:50.356Z,15.10
2018-03-11T14:10:17.872Z,15.00
2018-03-11T14:12:45.420Z,15.00
2018-03-11T14:15:12.981Z,14.90
2018-03-11T14:17:40.593Z,14.80
2018-03-11T14:20:08.169Z,14.80
2018-03-11T14:22:39.533Z,14.70
2018-03-11T14:25:07.112Z,14.70
2018-03-11T14:27:34.757Z,14.50
2018-03-11T14:30:02.363Z,14.50
2018-03-11T14:32:29.982Z,14.30
2018-03-11T14:34:57.591Z,14.20
2018-03-11T14:37:25.940Z,14.20
2018-03-11T14:39:53.534Z,14.20
2018-03-11T14:42:21.121Z,14.10
2018-03-11T14:44:48.714Z,14.00
2018-03-11T14:47:16.343Z,14.00
2018-03-11T14:49:43.938Z,13.80
2018-03-11T14:52:12.087Z,13.70
2018-03-11T14:54:39.725Z,13.60
2018-03-11T14:57:07.280Z,13.50
2018-03-11T14:59:34.867Z,13.50
2018-03-11T15:02:02.448Z,13.50
2018-03-11T15:04:30.031Z,13.50
2018-03-11T15:06:58.407Z,13.40
2018-03-11T15:09:26.767Z,13.30
2018-03-11T15:11:54.379Z,13.30
2018-03-11T15:14:21.969Z,13.10
2018-03-11T15:16:49.579Z,13.10
2018-03-11T15:19:17.176Z,13.10
2018-03-11T15:21:44.797Z,13.00
2018-03-11T15:24:12.403Z,13.00
2018-03-11T15:26:40.005Z,12.90
2018-03-11T15:29:08.363Z,12.60
2018-03-11T15:31:35.975Z,12.60
2018-03-11T15:34:03.569Z,12.60
2018-03-11T15:36:31.189Z,12.50
2018-03-11T15:38:58.780Z,12.40
2018-03-11T15:41:26.388Z,12.40
2018-03-11T15:43:53.975Z,12.30
2018-03-11T15:46:21.595Z,12.30
2018-03-11T15:48:49.162Z,12.30
2018-03-11T15:51:16.794Z,12.20
2018-03-11T15:53:44.407Z,12.20
2018-03-11T15:56:12.027Z,12.10
2018-03-11T15:58:39.657Z,12.00
2018-03-11T16:01:08.044Z,11.80
2018-03-11T16:03:35.680Z,11.80
2018-03-11T16:09:02.860Z,11.60
2018-03-11T16:11:30.433Z,11.60
2018-03-11T16:13:58.098Z,11.50
2018-03-11T16:16:25.738Z,11.40
2018-03-11T16:18:53.353Z,11.30
2018-03-11T16:21:21.012Z,11.20
2018-03-11T16:23:48.643Z,11.20
2018-03-11T16:26:16.241Z,11.10
2018-03-11T16:28:44.609Z,11.00
2018-03-11T16:31:13.145Z,11.00
2018-03-11T16:33:40.737Z,10.90
2018-03-11T16:36:08.392Z,10.90
2018-03-11T16:38:36.021Z,10.90
2018-03-11T16:41:03.596Z,10.80
2018-03-11T16:43:31.165Z,10.80
2018-03-11T16:45:58.777Z,10.70
2018-03-11T16:48:27.154Z,10.60
2018-03-11T16:50:55.566Z,10.60
2018-03-11T16:53:23.122Z,10.60
2018-03-11T16:55:50.711Z,10.60
2018-03-11T16:58:18.300Z,10.50
2018-03-11T17:00:46.803Z,10.40
2018-03-11T17:03:14.428Z,10.40
2018-03-11T17:05:43.003Z,10.40
2018-03-11T17:08:10.609Z,10.40
2018-03-11T17:10:41.269Z,10.40
2018-03-11T17:13:08.905Z,10.30
2018-03-11T17:15:38.437Z,10.30
2018-03-11T17:18:06.023Z,10.20
2018-03-11T17:20:33.655Z,10.10
2018-03-11T17:23:01.250Z,10.10
2018-03-11T17:25:28.850Z,10.00
2018-03-11T17:27:56.459Z,9.90
2018-03-11T17:30:24.076Z,9.90
2018-03-11T17:32:51.713Z,9.80
2018-03-11T17:35:19.263Z,9.80
2018-03-11T17:37:47.618Z,9.70
2018-03-11T17:40:15.183Z,9.70
2018-03-11T17:42:42.802Z,9.70
2018-03-11T17:45:10.383Z,9.60
2018-03-11T17:47:37.970Z,9.60
2018-03-11T17:50:05.583Z,9.60
2018-03-11T17:52:34.792Z,9.60
2018-03-11T17:55:02.427Z,9.60
2018-03-11T17:57:30.015Z,9.60
2018-03-11T17:59:57.643Z,9.50
2018-03-11T18:02:25.245Z,9.50
2018-03-11T18:04:52.851Z,9.50
2018-03-11T18:07:21.200Z,9.50
2018-03-11T18:09:48.812Z,9.50
2018-03-11T18:12:16.421Z,9.50
2018-03-11T18:14:44.038Z,9.40
2018-03-11T18:17:11.679Z,9.40
2018-03-11T18:19:40.045Z,9.40
2018-03-11T18:22:08.444Z,9.40
2018-03-11T18:24:37.972Z,9.30
2018-03-11T18:27:05.560Z,9.40
2018-03-11T18:29:33.172Z,9.30
2018-03-11T18:32:11.071Z,9.30
2018-03-11T18:34:38.682Z,9.40
2018-03-11T18:37:08.196Z,9.30
2018-03-11T18:39:35.842Z,9.30
2018-03-11T18:42:03.463Z,9.30
2018-03-11T18:44:42.806Z,9.30
2018-03-11T18:50:05.227Z,9.20
2018-03-11T18:52:57.063Z,9.20
2018-03-11T18:55:25.435Z,9.20
2018-03-11T18:57:53.772Z,9.20
2018-03-11T19:00:21.374Z,9.10
2018-03-11T19:02:49.761Z,9.10
2018-03-11T19:05:18.128Z,9.10
2018-03-11T19:07:45.725Z,9.10
2018-03-11T19:10:13.295Z,9.10
2018-03-11T19:12:45.573Z,9.10
2018-03-11T19:15:13.201Z,9.00
2018-03-11T19:17:40.812Z,9.00
2018-03-11T19:20:08.399Z,9.00
2018-03-11T19:22:36.012Z,9.00
2018-03-11T19:25:03.600Z,9.00
2018-03-11T19:27:31.242Z,8.90
2018-03-11T19:29:58.815Z,9.00
2018-03-11T19:32:26.438Z,9.00
2018-03-11T19:34:54.021Z,9.00
2018-03-11T19:37:21.638Z,9.00
2018-03-11T19:39:50.078Z,8.90
2018-03-11T19:42:17.658Z,8.90
2018-03-11T19:44:45.281Z,8.90
2018-03-11T19:47:12.857Z,8.80
2018-03-11T19:50:04.520Z,8.80
2018-03-11T19:52:32.884Z,8.80
2018-03-11T19:55:00.484Z,8.80
2018-03-11T19:57:28.055Z,8.80
2018-03-11T19:59:55.622Z,8.80
2018-03-11T20:02:23.291Z,8.80
2018-03-11T20:04:50.917Z,8.80
2018-03-11T20:07:18.487Z,8.80
2018-03-11T20:09:46.109Z,8.70
2018-03-11T20:12:13.710Z,8.70
2018-03-11T20:14:41.268Z,8.60
2018-03-11T20:17:08.881Z,8.50
2018-03-11T20:19:36.506Z,8.50
2018-03-11T20:22:04.156Z,8.50
2018-03-11T20:24:31.801Z,8.60
2018-03-11T20:26:59.421Z,8.80
2018-03-11T20:29:26.993Z,8.80
2018-03-11T20:31:55.387Z,8.70
2018-03-11T20:37:36.810Z,8.60
2018-03-11T20:40:04.360Z,8.50
2018-03-11T20:42:31.940Z,8.50
2018-03-11T20:44:59.523Z,8.50
2018-03-11T20:47:27.136Z,8.50
2018-03-11T20:49:54.692Z,8.50
2018-03-11T20:52:22.255Z,8.50
2018-03-11T20:54:49.898Z,8.50
2018-03-11T20:57:17.511Z,8.50
2018-03-11T20:59:45.106Z,8.50
2018-03-11T21:02:12.725Z,8.60
2018-03-11T21:04:40.333Z,8.60
2018-03-11T21:07:08.726Z,8.50
2018-03-11T21:09:37.082Z,8.50
2018-03-11T21:12:04.655Z,8.50
2018-03-11T21:14:33.083Z,8.50
2018-03-11T21:17:00.723Z,8.40
2018-03-11T21:19:28.351Z,8.40
2018-03-11T21:21:55.974Z,8.40
2018-03-11T21:24:23.592Z,8.40
2018-03-11T21:26:51.710Z,8.40
2018-03-11T21:29:19.280Z,8.30
2018-03-11T21:31:46.872Z,8.40
2018-03-11T21:34:15.207Z,8.30
2018-03-11T21:36:42.788Z,8.30
2018-03-11T21:39:21.016Z,8.30
2018-03-11T21:41:49.351Z,8.30
2018-03-11T21:44:16.995Z,8.30
2018-03-11T21:46:44.598Z,8.20
2018-03-11T21:49:12.216Z,8.20
2018-03-11T21:51:39.857Z,8.20
2018-03-11T21:54:07.427Z,8.20
2018-03-11T21:56:35.028Z,8.10
2018-03-11T21:59:02.637Z,8.10
2018-03-11T22:01:30.247Z,8.10
2018-03-11T22:03:57.874Z,8.00
2018-03-11T22:06:26.116Z,8.00
2018-03-11T22:08:54.497Z,8.00
2018-03-11T22:11:22.843Z,7.90
2018-03-11T22:13:50.456Z,7.90
2018-03-11T22:16:18.019Z,8.00
2018-03-11T22:18:45.644Z,8.00
2018-03-11T22:21:13.325Z,8.00
2018-03-11T22:23:41.654Z,8.00
2018-03-11T22:26:09.263Z,8.00
2018-03-11T22:28:37.656Z,8.00
2018-03-11T22:31:05.238Z,8.00
2018-03-11T22:33:32.843Z,8.00
2018-03-11T22:36:00.463Z,7.90
2018-03-11T22:38:28.112Z,7.90
2018-03-11T22:40:55.684Z,7.90
2018-03-11T22:43:23.284Z,7.80
2018-03-11T22:45:50.878Z,7.90
2018-03-11T22:48:18.466Z,7.90
2018-03-11T22:50:46.975Z,7.90
2018-03-11T22:53:14.626Z,7.90
2018-03-11T22:55:42.255Z,7.90
2018-03-11T22:58:09.862Z,7.90
2018-03-11T23:00:37.453Z,7.90
2018-03-11T23:03:05.106Z,7.90
2018-03-11T23:05:33.467Z,7.90
2018-03-11T23:08:01.091Z,7.90
2018-03-11T23:10:28.648Z,7.90
2018-03-11T23:12:59.240Z,7.90
2018-03-11T23:15:26.822Z,8.00
2018-03-11T23:17:54.394Z,7.90
2018-03-11T23:20:22.004Z,7.90
2018-03-11T23:22:50.331Z,7.90
2018-03-11T23:25:17.989Z,7.80
2018-03-11T23:27:45.567Z,7.80
2018-03-11T23:30:13.159Z,7.80
2018-03-11T23:32:40.752Z,7.80
2018-03-11T23:35:08.308Z,7.80
2018-03-11T23:37:35.880Z,7.80
2018-03-11T23:40:03.475Z,7.80
2018-03-11T23:42:31.084Z,7.80
2018-03-11T23:44:58.663Z,7.80
2018-03-11T23:47:26.309Z,7.90
2018-03-11T23:49:53.926Z,7.90
2018-03-11T23:52:21.512Z,7.90
2018-03-11T23:54:49.871Z,8.00
2018-03-11T23:57:17.478Z,7.90
2018-03-11T23:59:45.871Z,8.00
